Time,TemperatureF,DewpointF,PressureIn,WindDirection,WindDirectionDegrees,WindSpeedMPH,WindSpeedGustMPH,Humidity,HourlyPrecipIn,Conditions,Clouds,dailyrainin,SoftwareType,DateUTC
2013-11-27 00:00:00,28.6,-4.6,28.97,North,351,5.0,7.0,23,0.00,CLR,,0.00,WeatherDisplay:10.37,2013-11-27 05:00:00,
2013-11-27 00:05:00,28.6,-4.6,28.97,North,351,3.0,6.0,23,0.00,CLR,,0.00,WeatherDisplay:10.37,2013-11-27 05:05:00,
2013-11-27 00:10:00,28.4,-4.8,28.97,NNW,345,5.0,8.0,23,0.00,CLR,,0.00,WeatherDisplay:10.37,2013-11-27 05:10:00,
2013-11-27 00:15:00,28.4,-2.2,28.97,NNW,339,5.0,8.0,26,0.00,CLR,,0.00,WeatherDisplay:10.37,2013-11-27 05:15:00,
2013-11-27 00:20:00,28.2,-2.3,28.97,NNW,338,5.0,7.0,26,0.00,CLR,,0.00,WeatherDisplay:10.37,2013-11-27 05:20:00,
2013-11-27 00:25:00,28.0,-2.5,28.97,NNW,339,5.0,6.0,26,0.00,CLR,,0.00,WeatherDisplay:10.37,2013-11-27 05:25:00,
2013-11-27 00:30:00,27.9,-2.7,28.97,NNW,341,3.0,6.0,26,0.00,CLR,,0.00,WeatherDisplay:10.37,2013-11-27 05:30:00,
2013-11-27 00:35:00,27.7,-2.8,28.97,NNW,339,3.0,8.0,26,0.00,CLR,,0.00,WeatherDisplay:10.37,2013-11-27 05:35:00,
2013-11-27 00:40:00,27.4,-3.0,28.97,NNW,339,3.0,8.0,26,0.00,CLR,,0.00,WeatherDisplay:10.37,2013-11-27 05:40:00,
2013-11-27 00:45:00,27.0,-3.4,28.97,NNW,341,3.0,5.0,26,0.00,CLR,,0.00,WeatherDisplay:10.37,2013-11-27 05:45:00,
2013-11-27 00:50:00,26.8,-2.0,28.97,NNW,341,2.0,5.0,28,0.00,CLR,,0.00,WeatherDisplay:10.37,2013-11-27 05:50:00,
2013-11-27 00:55:00,26.4,-1.6,28.97,NNW,333,5.0,6.0,29,0.00,CLR,,0.00,WeatherDisplay:10.37,2013-11-27 05:55:00,
2013-11-27 01:05:00,26.1,0.2,28.97,NW,322,3.0,6.0,32,0.00,CLR,,0.00,WeatherDisplay:10.37,2013-11-27 06:05:00,
2013-11-27 01:10:00,25.9,0.0,28.97,NW,322,3.0,5.0,32,0.00,CLR,,0.00,WeatherDisplay:10.37,2013-11-27 06:10:00,
2013-11-27 01:15:00,25.5,-0.3,28.97,NW,322,3.0,4.0,32,0.00,CLR,,0.00,WeatherDisplay:10.37,2013-11-27 06:15:00,
2013-11-27 01:20:00,25.2,-0.6,28.97,NW,322,2.0,3.0,32,0.00,CLR,,0.00,WeatherDisplay:10.37,2013-11-27 06:20:00,
2013-11-27 01:25:00,25.2,-0.6,28.96,NW,321,3.0,4.0,32,0.00,CLR,,0.00,WeatherDisplay:10.37,2013-11-27 06:25:00,
2013-11-27 01:30:00,25.0,-0.8,28.94,NW,320,5.0,6.0,32,0.00,CLR,,0.00,WeatherDisplay:10.37,2013-11-27 06:30:00,
2013-11-27 01:35:00,25.2,-0.6,28.94,NW,321,5.0,6.0,32,0.00,CLR,,0.00,WeatherDisplay:10.37,2013-11-27 06:35:00,
2013-11-27 01:40:00,25.0,-0.8,28.94,NW,323,5.0,6.0,32,0.00,CLR,,0.00,WeatherDisplay:10.37,2013-11-27 06:40:00,
2013-11-27 01:45:00,25.1,-0.6,28.97,NW,326,3.0,6.0,32,0.00,CLR,,0.00,WeatherDisplay:10.37,2013-11-27 06:45:00,
2013-11-27 01:50:00,25.0,-0.8,28.97,NW,324,3.0,6.0,32,0.00,CLR,,0.00,WeatherDisplay:10.37,2013-11-27 06:50:00,
2013-11-27 01:55:00,25.1,-0.7,28.95,NW,325,3.0,6.0,32,0.00,CLR,,0.00,WeatherDisplay:10.37,2013-11-27 06:55:00,
2013-11-27 02:00:00,25.2,-0.6,28.94,NNW,327,3.0,5.0,32,0.00,CLR,,0.00,WeatherDisplay:10.37,2013-11-27 07:00:00,
2013-11-27 02:05:00,25.3,-0.5,28.94,NNW,327,3.0,5.0,32,0.00,CLR,,0.00,WeatherDisplay:10.37,2013-11-27 07:05:00,
2013-11-27 02:10:00,25.8,-0.1,28.95,NW,324,3.0,6.0,32,0.00,CLR,,0.00,WeatherDisplay:10.37,2013-11-27 07:10:00,
2013-11-27 02:15:00,26.2,0.3,28.97,NW,322,6.0,6.0,32,0.00,CLR,,0.00,WeatherDisplay:10.37,2013-11-27 07:15:00,
2013-11-27 02:20:00,26.4,0.5,28.97,NW,324,3.0,6.0,32,0.00,CLR,,0.00,WeatherDisplay:10.37,2013-11-27 07:20:00,
2013-11-27 02:25:00,26.6,0.7,28.97,NW,326,5.0,8.0,32,0.00,CLR,,0.00,WeatherDisplay:10.37,2013-11-27 07:25:00,
2013-11-27 02:30:00,26.6,0.7,28.97,NW,323,5.0,6.0,32,0.00,CLR,,0.00,WeatherDisplay:10.37,2013-11-27 07:30:00,
2013-11-27 02:35:00,26.6,0.0,28.97,NW,324,5.0,8.0,31,0.00,CLR,,0.00,WeatherDisplay:10.37,2013-11-27 07:35:00,
2013-11-27 02:40:00,26.8,0.1,28.97,NW,325,5.0,6.0,31,0.00,CLR,,0.00,WeatherDisplay:10.37,2013-11-27 07:40:00,
2013-11-27 02:45:00,27.0,-1.9,28.97,NNW,329,5.0,6.0,28,0.00,CLR,,0.00,WeatherDisplay:10.37,2013-11-27 07:45:00,
2013-11-27 02:50:00,27.0,-1.9,28.97,NNW,329,3.0,6.0,28,0.00,CLR,,0.00,WeatherDisplay:10.37,2013-11-27 07:50:00,
2013-11-27 02:55:00,27.0,-1.9,28.97,NW,325,3.0,6.0,28,0.00,CLR,,0.00,WeatherDisplay:10.37,2013-11-27 07:55:00,
2013-11-27 03:00:00,27.1,-1.7,28.97,NNW,328,5.0,6.0,28,0.00,CLR,,0.00,WeatherDisplay:10.37,2013-11-27 08:00:00,
2013-11-27 03:05:00,27.1,-1.7,28.97,NNW,338,6.0,6.0,28,0.00,CLR,,0.00,WeatherDisplay:10.37,2013-11-27 08:05:00,
2013-11-27 03:10:00,27.1,-1.7,28.97,NNW,336,5.0,8.0,28,0.00,CLR,,0.00,WeatherDisplay:10.37,2013-11-27 08:10:00,
2013-11-27 03:15:00,27.0,-3.4,28.97,NNW,338,5.0,8.0,26,0.00,CLR,,0.00,WeatherDisplay:10.37,2013-11-27 08:15:00,
2013-11-27 03:20:00,26.8,-6.1,28.97,NNW,341,6.0,8.0,23,0.00,CLR,,0.00,WeatherDisplay:10.37,2013-11-27 08:20:00,
2013-11-27 03:25:00,26.9,-6.0,28.97,NNW,340,5.0,6.0,23,0.00,CLR,,0.00,WeatherDisplay:10.37,2013-11-27 08:25:00,
2013-11-27 03:30:00,27.0,-3.4,28.97,NNW,339,5.0,6.0,26,0.00,CLR,,0.00,WeatherDisplay:10.37,2013-11-27 08:30:00,
2013-11-27 03:35:00,27.1,-3.3,28.97,NNW,339,5.0,8.0,26,0.00,CLR,,0.00,WeatherDisplay:10.37,2013-11-27 08:35:00,
2013-11-27 03:40:00,27.1,-3.3,28.97,NNW,335,6.0,8.0,26,0.00,CLR,,0.00,WeatherDisplay:10.37,2013-11-27 08:40:00,
2013-11-27 03:50:00,27.0,-1.9,28.97,NW,325,6.0,9.0,28,0.00,CLR,,0.00,WeatherDisplay:10.37,2013-11-27 08:50:00,
2013-11-27 03:55:00,26.6,-1.4,28.96,NW,316,7.0,12.0,29,0.00,CLR,,0.00,WeatherDisplay:10.37,2013-11-27 08:55:00,
2013-11-27 04:00:00,26.4,-1.6,28.94,NW,314,7.0,12.0,29,0.00,CLR,,0.00,WeatherDisplay:10.37,2013-11-27 09:00:00,
2013-11-27 04:05:00,26.2,-0.3,28.94,NW,319,6.0,8.0,31,0.00,CLR,,0.00,WeatherDisplay:10.37,2013-11-27 09:05:00,
2013-11-27 04:15:00,26.2,-0.3,28.97,NW,326,6.0,8.0,31,0.00,CLR,,0.00,WeatherDisplay:10.37,2013-11-27 09:15:00,
2013-11-27 04:20:00,26.1,-0.5,28.97,NNW,327,7.0,12.0,31,0.00,CLR,,0.00,WeatherDisplay:10.37,2013-11-27 09:20:00,
2013-11-27 04:25:00,25.8,-0.7,28.97,NNW,330,7.0,8.0,31,0.00,CLR,,0.00,WeatherDisplay:10.37,2013-11-27 09:25:00,
2013-11-27 04:30:00,25.5,-1.0,28.97,NNW,333,6.0,8.0,31,0.00,CLR,,0.00,WeatherDisplay:10.37,2013-11-27 09:30:00,
2013-11-27 04:35:00,25.3,-1.1,28.97,NNW,329,6.0,8.0,31,0.00,CLR,,0.00,WeatherDisplay:10.37,2013-11-27 09:35:00,
2013-11-27 04:40:00,25.3,-0.5,28.97,NNW,328,6.0,8.0,32,0.00,CLR,,0.00,WeatherDisplay:10.37,2013-11-27 09:40:00,
2013-11-27 04:45:00,25.5,-0.3,28.97,NNW,329,6.0,8.0,32,0.00,CLR,,0.00,WeatherDisplay:10.37,2013-11-27 09:45:00,
2013-11-27 04:50:00,25.5,-0.3,28.97,NNW,329,6.0,8.0,32,0.00,CLR,,0.00,WeatherDisplay:10.37,2013-11-27 09:50:00,
2013-11-27 04:55:00,25.7,-0.1,28.97,NNW,333,8.0,8.0,32,0.00,CLR,,0.00,WeatherDisplay:10.37,2013-11-27 09:55:00,
2013-11-27 05:00:00,25.7,-0.8,28.97,NNW,339,6.0,11.0,31,0.00,CLR,,0.00,WeatherDisplay:10.37,2013-11-27 10:00:00,
2013-11-27 05:05:00,25.7,-0.8,28.97,NNW,333,7.0,11.0,31,0.00,CLR,,0.00,WeatherDisplay:10.37,2013-11-27 10:05:00,
2013-11-27 05:10:00,25.9,-2.1,28.97,NNW,337,7.0,10.0,29,0.00,CLR,,0.00,WeatherDisplay:10.37,2013-11-27 10:10:00,
2013-11-27 05:15:00,25.9,-2.1,28.97,NNW,342,7.0,11.0,29,0.00,CLR,,0.00,WeatherDisplay:10.37,2013-11-27 10:15:00,
2013-11-27 05:20:00,25.9,-4.4,28.97,NNW,341,6.0,8.0,26,0.00,CLR,,0.00,WeatherDisplay:10.37,2013-11-27 10:20:00,
2013-11-27 05:25:00,25.7,-4.5,28.97,NNW,341,5.0,6.0,26,0.00,CLR,,0.00,WeatherDisplay:10.37,2013-11-27 10:25:00,
2013-11-27 05:30:00,25.7,-4.5,28.97,NNW,346,3.0,6.0,26,0.00,CLR,,0.00,WeatherDisplay:10.37,2013-11-27 10:30:00,
2013-11-27 05:35:00,25.7,-4.5,28.97,NNW,348,0.0,6.0,26,0.00,CLR,,0.00,WeatherDisplay:10.37,2013-11-27 10:35:00,
2013-11-27 05:40:00,25.5,-4.7,28.97,NNW,347,3.0,6.0,26,0.00,CLR,,0.00,WeatherDisplay:10.37,2013-11-27 10:40:00,
2013-11-27 05:50:00,25.3,-6.5,29.00,North,349,5.0,8.0,24,0.00,CLR,,0.00,WeatherDisplay:10.37,2013-11-27 10:50:00,
2013-11-27 05:55:00,25.3,-6.5,29.00,North,349,6.0,8.0,24,0.00,CLR,,0.00,WeatherDisplay:10.37,2013-11-27 10:55:00,
2013-11-27 06:00:00,25.2,-6.6,29.00,NNW,345,8.0,9.0,24,0.00,CLR,,0.00,WeatherDisplay:10.37,2013-11-27 11:00:00,
2013-11-27 06:05:00,25.0,-6.8,29.00,NNW,348,7.0,9.0,24,0.00,CLR,,0.00,WeatherDisplay:10.37,2013-11-27 11:05:00,
2013-11-27 06:10:00,25.0,-6.8,29.00,NNW,348,6.0,9.0,24,0.00,CLR,,0.00,WeatherDisplay:10.37,2013-11-27 11:10:00,
2013-11-27 06:15:00,24.8,-7.0,29.00,North,349,5.0,8.0,24,0.00,CLR,,0.00,WeatherDisplay:10.37,2013-11-27 11:15:00,
2013-11-27 06:25:00,24.8,-7.0,29.00,NNW,342,0.0,4.0,24,0.00,CLR,,0.00,WeatherDisplay:10.37,2013-11-27 11:25:00,
2013-11-27 06:30:00,24.8,-7.0,29.00,North,354,2.0,6.0,24,0.00,CLR,,0.00,WeatherDisplay:10.37,2013-11-27 11:30:00,
2013-11-27 06:35:00,24.6,-7.1,29.00,North,349,5.0,6.0,24,0.00,CLR,,0.00,WeatherDisplay:10.37,2013-11-27 11:35:00,
2013-11-27 06:40:00,24.6,-7.1,29.00,North,349,3.0,6.0,24,0.00,CLR,,0.00,WeatherDisplay:10.37,2013-11-27 11:40:00,
2013-11-27 06:45:00,24.6,-7.1,29.00,NNW,347,3.0,6.0,24,0.00,CLR,,0.00,WeatherDisplay:10.37,2013-11-27 11:45:00,
2013-11-27 06:50:00,24.4,-7.3,29.00,NNW,346,3.0,6.0,24,0.00,CLR,,0.00,WeatherDisplay:10.37,2013-11-27 11:50:00,
2013-11-27 06:55:00,24.4,-7.3,29.00,NNW,339,3.0,6.0,24,0.00,CLR,,0.00,WeatherDisplay:10.37,2013-11-27 11:55:00,
2013-11-27 07:00:00,24.4,-7.3,29.00,NNW,336,3.0,5.0,24,0.00,CLR,,0.00,WeatherDisplay:10.37,2013-11-27 12:00:00,
2013-11-27 07:05:00,24.4,-7.3,29.00,NNW,337,2.0,4.0,24,0.00,CLR,,0.00,WeatherDisplay:10.37,2013-11-27 12:05:00,
2013-11-27 07:10:00,24.4,-7.3,29.00,NNW,337,3.0,5.0,24,0.00,CLR,,0.00,WeatherDisplay:10.37,2013-11-27 12:10:00,
2013-11-27 07:20:00,24.4,-7.3,29.03,NNW,341,5.0,8.0,24,0.00,CLR,,0.00,WeatherDisplay:10.37,2013-11-27 12:20:00,
2013-11-27 07:30:00,24.4,-7.3,29.03,NNW,342,5.0,6.0,24,0.00,CLR,,0.00,WeatherDisplay:10.37,2013-11-27 12:30:00,
2013-11-27 07:35:00,24.4,-7.3,29.03,NNW,340,5.0,6.0,24,0.00,CLR,,0.00,WeatherDisplay:10.37,2013-11-27 12:35:00,
2013-11-27 07:40:00,24.4,-7.3,29.03,NNW,340,5.0,8.0,24,0.00,CLR,,0.00,WeatherDisplay:10.37,2013-11-27 12:40:00,
2013-11-27 07:45:00,24.4,-7.3,29.03,NNW,340,5.0,6.0,24,0.00,CLR,,0.00,WeatherDisplay:10.37,2013-11-27 12:45:00,
2013-11-27 07:50:00,24.4,-7.3,29.03,NNW,339,6.0,8.0,24,0.00,CLR,,0.00,WeatherDisplay:10.37,2013-11-27 12:50:00,
2013-11-27 07:55:00,24.4,-7.3,29.03,NNW,339,6.0,8.0,24,0.00,CLR,,0.00,WeatherDisplay:10.37,2013-11-27 12:55:00,
2013-11-27 08:00:00,24.4,-7.3,29.03,NNW,340,5.0,8.0,24,0.00,CLR,,0.00,WeatherDisplay:10.37,2013-11-27 13:00:00,
2013-11-27 08:10:00,24.4,-7.3,29.03,NNW,342,5.0,6.0,24,0.00,CLR,,0.00,WeatherDisplay:10.37,2013-11-27 13:10:00,
2013-11-27 08:15:00,24.4,-7.3,29.03,NNW,343,5.0,8.0,24,0.00,CLR,,0.00,WeatherDisplay:10.37,2013-11-27 13:15:00,
2013-11-27 08:20:00,24.4,-7.3,29.03,NNW,345,5.0,9.0,24,0.00,CLR,,0.00,WeatherDisplay:10.37,2013-11-27 13:20:00,
2013-11-27 08:30:00,24.6,-7.1,29.03,NNW,341,3.0,6.0,24,0.00,CLR,,0.00,WeatherDisplay:10.37,2013-11-27 13:30:00,
2013-11-27 08:35:00,24.6,-7.1,29.03,NNW,340,2.0,6.0,24,0.00,CLR,,0.00,WeatherDisplay:10.37,2013-11-27 13:35:00,
2013-11-27 08:40:00,24.6,-7.1,29.03,NNW,339,5.0,8.0,24,0.00,CLR,,0.00,WeatherDisplay:10.37,2013-11-27 13:40:00,
2013-11-27 08:50:00,24.6,-7.1,29.03,NNW,345,6.0,8.0,24,0.00,CLR,,0.00,WeatherDisplay:10.37,2013-11-27 13:50:00,
2013-11-27 08:55:00,24.8,-7.0,29.05,NNW,341,3.0,6.0,24,0.00,CLR,,0.00,WeatherDisplay:10.37,2013-11-27 13:55:00,
2013-11-27 09:00:00,24.9,-6.8,29.06,NNW,338,3.0,4.0,24,0.00,CLR,,0.00,WeatherDisplay:10.37,2013-11-27 14:00:00,
2013-11-27 09:10:00,25.3,-6.5,29.06,NNW,330,3.0,6.0,24,0.00,CLR,,0.00,WeatherDisplay:10.37,2013-11-27 14:10:00,
2013-11-27 09:15:00,25.3,-6.5,29.06,NNW,335,5.0,6.0,24,0.00,CLR,,0.00,WeatherDisplay:10.37,2013-11-27 14:15:00,
2013-11-27 09:20:00,25.4,-6.5,29.06,NNW,339,5.0,6.0,24,0.00,CLR,,0.00,WeatherDisplay:10.37,2013-11-27 14:20:00,
2013-11-27 09:30:00,25.9,-6.0,29.06,NNW,338,5.0,6.0,24,0.00,CLR,,0.00,WeatherDisplay:10.37,2013-11-27 14:30:00,
2013-11-27 09:35:00,25.9,-6.0,29.06,NNW,336,6.0,8.0,24,0.00,CLR,,0.00,WeatherDisplay:10.37,2013-11-27 14:35:00,
2013-11-27 09:40:00,25.9,-6.0,29.06,NNW,335,6.0,9.0,24,0.00,CLR,,0.00,WeatherDisplay:10.37,2013-11-27 14:40:00,
2013-11-27 09:50:00,26.1,-5.9,29.06,NNW,345,3.0,8.0,24,0.00,CLR,,0.00,WeatherDisplay:10.37,2013-11-27 14:50:00,
2013-11-27 09:55:00,26.1,-5.9,29.06,NNW,340,7.0,8.0,24,0.00,CLR,,0.00,WeatherDisplay:10.37,2013-11-27 14:55:00,
2013-11-27 10:00:00,26.0,-5.9,29.06,NNW,341,7.0,8.0,24,0.00,CLR,,0.00,WeatherDisplay:10.37,2013-11-27 15:00:00,
2013-11-27 10:10:00,26.8,-6.1,29.06,NNW,339,5.0,8.0,23,0.00,CLR,,0.00,WeatherDisplay:10.37,2013-11-27 15:10:00,
2013-11-27 10:15:00,26.8,-6.1,29.06,NNW,343,7.0,9.0,23,0.00,CLR,,0.00,WeatherDisplay:10.37,2013-11-27 15:15:00,
2013-11-27 10:20:00,26.8,-6.1,29.06,NNW,343,5.0,8.0,23,0.00,CLR,,0.00,WeatherDisplay:10.37,2013-11-27 15:20:00,
2013-11-27 10:25:00,26.6,-5.4,29.06,NNW,342,7.0,9.0,24,0.00,CLR,,0.00,WeatherDisplay:10.37,2013-11-27 15:25:00,
2013-11-27 10:30:00,26.6,-5.4,29.03,NNW,335,6.0,8.0,24,0.00,CLR,,0.00,WeatherDisplay:10.37,2013-11-27 15:30:00,
2013-11-27 10:35:00,26.8,-6.1,29.03,NNW,328,6.0,10.0,23,0.00,CLR,,0.00,WeatherDisplay:10.37,2013-11-27 15:35:00,
2013-11-27 10:40:00,27.0,-6.0,29.04,NNW,333,8.0,10.0,23,0.00,CLR,,0.00,WeatherDisplay:10.37,2013-11-27 15:40:00,
2013-11-27 11:20:00,27.3,-5.7,29.06,NNW,341,7.0,9.0,23,0.00,CLR,,0.00,WeatherDisplay:10.37,2013-11-27 16:20:00,
2013-11-27 11:25:00,27.4,-5.6,29.06,NNW,340,9.0,13.0,23,0.00,CLR,,0.00,WeatherDisplay:10.37,2013-11-27 16:25:00,
2013-11-27 11:30:00,27.1,-5.8,29.06,NNW,338,8.0,13.0,23,0.00,CLR,,0.00,WeatherDisplay:10.37,2013-11-27 16:30:00,
2013-11-27 11:35:00,27.2,-5.8,29.06,NNW,337,7.0,12.0,23,0.00,CLR,,0.00,WeatherDisplay:10.37,2013-11-27 16:35:00,
2013-11-27 11:40:00,27.5,-5.5,29.06,NNW,342,6.0,11.0,23,0.00,CLR,,0.00,WeatherDisplay:10.37,2013-11-27 16:40:00,
2013-11-27 11:45:00,28.2,-5.0,29.06,NNW,340,7.0,11.0,23,0.00,CLR,,0.00,WeatherDisplay:10.37,2013-11-27 16:45:00,
2013-11-27 11:50:00,27.8,-5.3,29.06,NNW,339,8.0,11.0,23,0.00,CLR,,0.00,WeatherDisplay:10.37,2013-11-27 16:50:00,
2013-11-27 11:55:00,27.5,-5.5,29.05,NNW,345,7.0,12.0,23,0.00,CLR,,0.00,WeatherDisplay:10.37,2013-11-27 16:55:00,
2013-11-27 12:00:00,27.5,-5.5,29.03,NNW,340,8.0,10.0,23,0.00,CLR,,0.00,WeatherDisplay:10.37,2013-11-27 17:00:00,
2013-11-27 12:05:00,28.7,-4.5,29.03,NW,324,8.0,12.0,23,0.00,CLR,,0.00,WeatherDisplay:10.37,2013-11-27 17:05:00,
2013-11-27 12:10:00,28.7,-4.5,29.03,NW,324,8.0,10.0,23,0.00,CLR,,0.00,WeatherDisplay:10.37,2013-11-27 17:10:00,
2013-11-27 12:20:00,28.3,-4.8,29.03,NW,325,8.0,11.0,23,0.00,CLR,,0.00,WeatherDisplay:10.37,2013-11-27 17:20:00,
2013-11-27 12:30:00,28.7,-4.5,29.03,NW,317,7.0,9.0,23,0.00,CLR,,0.00,WeatherDisplay:10.37,2013-11-27 17:30:00,
2013-11-27 12:35:00,28.2,-4.9,29.03,NW,326,7.0,12.0,23,0.00,CLR,,0.00,WeatherDisplay:10.37,2013-11-27 17:35:00,
2013-11-27 12:40:00,27.9,-5.2,29.03,NNW,335,7.0,10.0,23,0.00,CLR,,0.00,WeatherDisplay:10.37,2013-11-27 17:40:00,
2013-11-27 12:50:00,28.4,-4.8,29.03,NNW,327,8.0,11.0,23,0.00,CLR,,0.00,WeatherDisplay:10.37,2013-11-27 17:50:00,
2013-11-27 13:00:00,28.6,-4.6,29.03,NW,305,6.0,10.0,23,0.00,CLR,,0.00,WeatherDisplay:10.37,2013-11-27 18:00:00,
2013-11-27 13:10:00,28.0,-5.1,29.03,WNW,289,6.0,10.0,23,0.00,CLR,,0.00,WeatherDisplay:10.37,2013-11-27 18:10:00,
2013-11-27 13:20:00,27.9,-5.2,29.03,WNW,296,10.0,13.0,23,0.00,CLR,,0.00,WeatherDisplay:10.37,2013-11-27 18:20:00,
2013-11-27 13:25:00,28.4,-4.8,29.03,NW,307,7.0,12.0,23,0.00,CLR,,0.00,WeatherDisplay:10.37,2013-11-27 18:25:00,
2013-11-27 13:35:00,28.6,-4.6,29.03,WNW,302,8.0,10.0,23,0.00,CLR,,0.00,WeatherDisplay:10.37,2013-11-27 18:35:00,
2013-11-27 13:40:00,28.2,-5.0,29.03,WNW,301,6.0,13.0,23,0.00,CLR,,0.00,WeatherDisplay:10.37,2013-11-27 18:40:00,
2013-11-27 13:45:00,27.9,-5.2,29.03,WNW,300,9.0,13.0,23,0.00,CLR,,0.00,WeatherDisplay:10.37,2013-11-27 18:45:00,
2013-11-27 13:55:00,28.8,-4.4,29.03,WNW,300,6.0,10.0,23,0.00,CLR,,0.00,WeatherDisplay:10.37,2013-11-27 18:55:00,
2013-11-27 14:00:00,28.3,-4.9,29.03,NW,306,9.0,13.0,23,0.00,CLR,,0.00,WeatherDisplay:10.37,2013-11-27 19:00:00,
2013-11-27 14:10:00,27.2,-5.8,29.03,WNW,299,8.0,12.0,23,0.00,CLR,,0.00,WeatherDisplay:10.37,2013-11-27 19:10:00,
2013-11-27 14:15:00,27.3,-5.7,29.03,WNW,293,8.0,13.0,23,0.00,CLR,,0.00,WeatherDisplay:10.37,2013-11-27 19:15:00,
2013-11-27 14:20:00,27.7,-5.4,29.03,WNW,300,7.0,11.0,23,0.00,CLR,,0.00,WeatherDisplay:10.37,2013-11-27 19:20:00,
2013-11-27 14:30:00,26.6,-5.4,29.03,WNW,295,8.0,12.0,24,0.00,CLR,,0.00,WeatherDisplay:10.37,2013-11-27 19:30:00,
2013-11-27 14:40:00,27.0,-6.0,29.04,NW,304,7.0,11.0,23,0.00,CLR,,0.00,WeatherDisplay:10.37,2013-11-27 19:40:00,
2013-11-27 14:50:00,26.4,-5.6,29.06,NW,308,8.0,14.0,24,0.00,CLR,,0.00,WeatherDisplay:10.37,2013-11-27 19:50:00,
2013-11-27 14:55:00,26.2,-5.7,29.06,NW,304,7.0,12.0,24,0.00,CLR,,0.00,WeatherDisplay:10.37,2013-11-27 19:55:00,
2013-11-27 15:00:00,26.4,-5.6,29.06,WNW,296,6.0,12.0,24,0.00,CLR,,0.00,WeatherDisplay:10.37,2013-11-27 20:00:00,
2013-11-27 15:05:00,26.4,-5.6,29.06,WNW,297,7.0,12.0,24,0.00,CLR,,0.00,WeatherDisplay:10.37,2013-11-27 20:05:00,
2013-11-27 15:10:00,26.4,-5.6,29.06,WNW,300,7.0,12.0,24,0.00,CLR,,0.00,WeatherDisplay:10.37,2013-11-27 20:10:00,
2013-11-27 15:15:00,26.4,-5.6,29.06,WNW,298,6.0,10.0,24,0.00,CLR,,0.00,WeatherDisplay:10.37,2013-11-27 20:15:00,
2013-11-27 15:25:00,26.4,-5.6,29.06,NW,304,8.0,13.0,24,0.00,CLR,,0.00,WeatherDisplay:10.37,2013-11-27 20:25:00,
2013-11-27 15:30:00,26.2,-5.7,29.06,NW,306,6.0,15.0,24,0.00,CLR,,0.00,WeatherDisplay:10.37,2013-11-27 20:30:00,
2013-11-27 15:35:00,26.1,-5.9,29.06,NW,310,7.0,10.0,24,0.00,CLR,,0.00,WeatherDisplay:10.37,2013-11-27 20:35:00,
2013-11-27 15:45:00,26.1,-4.2,29.06,WNW,302,7.0,10.0,26,0.00,CLR,,0.00,WeatherDisplay:10.37,2013-11-27 20:45:00,
2013-11-27 15:50:00,26.1,-4.2,29.06,NW,306,6.0,13.0,26,0.00,CLR,,0.00,WeatherDisplay:10.37,2013-11-27 20:50:00,
2013-11-27 15:55:00,25.9,-4.4,29.06,NW,309,6.0,8.0,26,0.00,CLR,,0.00,WeatherDisplay:10.37,2013-11-27 20:55:00,
2013-11-27 16:05:00,26.1,-4.2,29.06,WNW,301,6.0,8.0,26,0.00,CLR,,0.00,WeatherDisplay:10.37,2013-11-27 21:05:00,
2013-11-27 16:10:00,26.1,-1.9,29.08,WNW,299,5.0,10.0,29,0.00,CLR,,0.00,WeatherDisplay:10.37,2013-11-27 21:10:00,
2013-11-27 16:20:00,26.1,-1.9,29.09,WNW,302,7.0,10.0,29,0.00,CLR,,0.00,WeatherDisplay:10.37,2013-11-27 21:20:00,
2013-11-27 16:25:00,26.1,-4.2,29.09,WNW,299,6.0,9.0,26,0.00,CLR,,0.00,WeatherDisplay:10.37,2013-11-27 21:25:00,
2013-11-27 16:30:00,26.1,-4.2,29.09,WNW,303,6.0,9.0,26,0.00,CLR,,0.00,WeatherDisplay:10.37,2013-11-27 21:30:00,
2013-11-27 16:40:00,26.1,-4.2,29.09,NW,305,5.0,10.0,26,0.00,CLR,,0.00,WeatherDisplay:10.37,2013-11-27 21:40:00,
2013-11-27 16:50:00,26.1,-4.2,29.09,NW,305,6.0,9.0,26,0.00,CLR,,0.00,WeatherDisplay:10.37,2013-11-27 21:50:00,
2013-11-27 17:00:00,26.1,-4.2,29.09,NW,313,7.0,9.0,26,0.00,CLR,,0.00,WeatherDisplay:10.37,2013-11-27 22:00:00,
2013-11-27 17:05:00,26.1,-5.9,29.09,NW,308,7.0,8.0,24,0.00,CLR,,0.00,WeatherDisplay:10.37,2013-11-27 22:05:00,
2013-11-27 17:10:00,26.1,-5.9,29.10,NW,305,7.0,10.0,24,0.00,CLR,,0.00,WeatherDisplay:10.37,2013-11-27 22:10:00,
2013-11-27 17:20:00,26.1,-5.9,29.12,NW,304,7.0,9.0,24,0.00,CLR,,0.00,WeatherDisplay:10.37,2013-11-27 22:20:00,
2013-11-27 17:25:00,25.9,-6.0,29.12,NW,306,5.0,8.0,24,0.00,CLR,,0.00,WeatherDisplay:10.37,2013-11-27 22:25:00,
2013-11-27 17:35:00,25.7,-4.5,29.12,NW,307,6.0,8.0,26,0.00,CLR,,0.00,WeatherDisplay:10.37,2013-11-27 22:35:00,
2013-11-27 17:40:00,25.7,-4.5,29.12,NW,311,6.0,8.0,26,0.00,CLR,,0.00,WeatherDisplay:10.37,2013-11-27 22:40:00,
2013-11-27 17:45:00,25.7,-4.5,29.12,NW,311,6.0,8.0,26,0.00,CLR,,0.00,WeatherDisplay:10.37,2013-11-27 22:45:00,
2013-11-27 17:50:00,25.5,-4.7,29.12,NW,305,6.0,8.0,26,0.00,CLR,,0.00,WeatherDisplay:10.37,2013-11-27 22:50:00,
2013-11-27 18:00:00,25.5,-4.7,29.09,WNW,302,5.0,8.0,26,0.00,CLR,,0.00,WeatherDisplay:10.37,2013-11-27 23:00:00,
2013-11-27 18:05:00,25.5,-4.7,29.09,WNW,303,5.0,8.0,26,0.00,CLR,,0.00,WeatherDisplay:10.37,2013-11-27 23:05:00,
2013-11-27 18:15:00,25.5,-6.3,29.12,NW,306,6.0,9.0,24,0.00,CLR,,0.00,WeatherDisplay:10.37,2013-11-27 23:15:00,
2013-11-27 18:20:00,25.5,-6.3,29.12,NW,307,7.0,13.0,24,0.00,CLR,,0.00,WeatherDisplay:10.37,2013-11-27 23:20:00,
2013-11-27 18:25:00,25.5,-6.3,29.12,NW,309,6.0,8.0,24,0.00,CLR,,0.00,WeatherDisplay:10.37,2013-11-27 23:25:00,
2013-11-27 18:30:00,25.7,-6.2,29.12,NW,305,5.0,9.0,24,0.00,CLR,,0.00,WeatherDisplay:10.37,2013-11-27 23:30:00,
2013-11-27 18:35:00,25.7,-6.2,29.12,NW,305,6.0,8.0,24,0.00,CLR,,0.00,WeatherDisplay:10.37,2013-11-27 23:35:00,
2013-11-27 18:40:00,25.7,-6.2,29.12,NW,309,5.0,8.0,24,0.00,CLR,,0.00,WeatherDisplay:10.37,2013-11-27 23:40:00,
2013-11-27 18:45:00,25.7,-6.2,29.12,NW,313,6.0,11.0,24,0.00,CLR,,0.00,WeatherDisplay:10.37,2013-11-27 23:45:00,
2013-11-27 18:50:00,25.5,-6.3,29.12,NW,311,6.0,8.0,24,0.00,CLR,,0.00,WeatherDisplay:10.37,2013-11-27 23:50:00,
2013-11-27 19:00:00,25.7,-6.2,29.15,NW,306,6.0,9.0,24,0.00,CLR,,0.00,WeatherDisplay:10.37,2013-11-28 00:00:00,
2013-11-27 19:05:00,25.5,-6.3,29.15,NW,309,5.0,8.0,24,0.00,CLR,,0.00,WeatherDisplay:10.37,2013-11-28 00:05:00,
2013-11-27 19:10:00,25.5,-6.3,29.15,NW,313,6.0,9.0,24,0.00,CLR,,0.00,WeatherDisplay:10.37,2013-11-28 00:10:00,
2013-11-27 19:15:00,25.5,-6.3,29.15,NW,316,8.0,10.0,24,0.00,CLR,,0.00,WeatherDisplay:10.37,2013-11-28 00:15:00,
2013-11-27 19:20:00,25.5,-6.3,29.15,NW,320,7.0,10.0,24,0.00,CLR,,0.00,WeatherDisplay:10.37,2013-11-28 00:20:00,
2013-11-27 19:25:00,25.5,-6.3,29.15,NW,309,8.0,11.0,24,0.00,CLR,,0.00,WeatherDisplay:10.37,2013-11-28 00:25:00,
2013-11-27 19:30:00,25.5,-6.4,29.15,NW,306,7.0,12.0,24,0.00,CLR,,0.00,WeatherDisplay:10.37,2013-11-28 00:30:00,
2013-11-27 19:35:00,25.3,-6.5,29.15,WNW,302,7.0,12.0,24,0.00,CLR,,0.00,WeatherDisplay:10.37,2013-11-28 00:35:00,
2013-11-27 19:45:00,25.3,-6.5,29.15,NW,307,6.0,8.0,24,0.00,CLR,,0.00,WeatherDisplay:10.37,2013-11-28 00:45:00,
2013-11-27 19:55:00,25.2,-6.6,29.15,WNW,302,7.0,10.0,24,0.00,CLR,,0.00,WeatherDisplay:10.37,2013-11-28 00:55:00,
2013-11-27 20:00:00,25.2,-6.6,29.15,NW,305,7.0,8.0,24,0.00,CLR,,0.00,WeatherDisplay:10.37,2013-11-28 01:00:00,
2013-11-27 20:05:00,25.2,-6.6,29.15,NW,307,8.0,12.0,24,0.00,CLR,,0.00,WeatherDisplay:10.37,2013-11-28 01:05:00,
2013-11-27 20:15:00,25.2,-6.6,29.15,WNW,301,9.0,15.0,24,0.00,CLR,,0.00,WeatherDisplay:10.37,2013-11-28 01:15:00,
2013-11-27 20:20:00,25.0,-6.8,29.15,WNW,303,8.0,12.0,24,0.00,CLR,,0.00,WeatherDisplay:10.37,2013-11-28 01:20:00,
2013-11-27 20:25:00,25.0,-6.8,29.15,NW,305,6.0,12.0,24,0.00,CLR,,0.00,WeatherDisplay:10.37,2013-11-28 01:25:00,
2013-11-27 20:30:00,24.8,-7.0,29.15,NW,309,7.0,9.0,24,0.00,CLR,,0.00,WeatherDisplay:10.37,2013-11-28 01:30:00,
2013-11-27 20:35:00,24.8,-7.0,29.15,NW,305,6.0,11.0,24,0.00,CLR,,0.00,WeatherDisplay:10.37,2013-11-28 01:35:00,
2013-11-27 20:40:00,24.8,-7.0,29.15,WNW,302,7.0,9.0,24,0.00,CLR,,0.00,WeatherDisplay:10.37,2013-11-28 01:40:00,
2013-11-27 20:45:00,24.8,-7.0,29.15,WNW,300,6.0,9.0,24,0.00,CLR,,0.00,WeatherDisplay:10.37,2013-11-28 01:45:00,
2013-11-27 20:50:00,24.8,-7.0,29.15,WNW,302,6.0,8.0,24,0.00,CLR,,0.00,WeatherDisplay:10.37,2013-11-28 01:50:00,
2013-11-27 20:55:00,24.8,-7.0,29.15,NW,305,7.0,11.0,24,0.00,CLR,,0.00,WeatherDisplay:10.37,2013-11-28 01:55:00,
2013-11-27 21:00:00,24.6,-7.1,29.15,NW,306,6.0,9.0,24,0.00,CLR,,0.00,WeatherDisplay:10.37,2013-11-28 02:00:00,
2013-11-27 21:10:00,24.7,-7.1,29.15,WNW,300,6.0,10.0,24,0.00,CLR,,0.00,WeatherDisplay:10.37,2013-11-28 02:10:00,
2013-11-27 21:15:00,24.6,-7.1,29.15,WNW,303,5.0,8.0,24,0.00,CLR,,0.00,WeatherDisplay:10.37,2013-11-28 02:15:00,
2013-11-27 21:20:00,24.5,-7.3,29.15,WNW,303,5.0,8.0,24,0.00,CLR,,0.00,WeatherDisplay:10.37,2013-11-28 02:20:00,
2013-11-27 21:25:00,24.4,-7.3,29.15,WNW,302,6.0,8.0,24,0.00,CLR,,0.00,WeatherDisplay:10.37,2013-11-28 02:25:00,
2013-11-27 21:30:00,24.4,-7.3,29.18,NW,304,5.0,8.0,24,0.00,CLR,,0.00,WeatherDisplay:10.37,2013-11-28 02:30:00,
2013-11-27 21:35:00,24.4,-7.3,29.18,WNW,303,5.0,9.0,24,0.00,CLR,,0.00,WeatherDisplay:10.37,2013-11-28 02:35:00,
2013-11-27 21:40:00,24.3,-7.4,29.18,WNW,302,5.0,8.0,24,0.00,CLR,,0.00,WeatherDisplay:10.37,2013-11-28 02:40:00,
2013-11-27 21:45:00,24.3,-7.4,29.18,WNW,301,3.0,7.0,24,0.00,CLR,,0.00,WeatherDisplay:10.37,2013-11-28 02:45:00,
2013-11-27 21:50:00,24.1,-7.6,29.18,WNW,295,3.0,4.0,24,0.00,CLR,,0.00,WeatherDisplay:10.37,2013-11-28 02:50:00,
2013-11-27 21:55:00,23.9,-7.7,29.16,WNW,286,3.0,6.0,24,0.00,CLR,,0.00,WeatherDisplay:10.37,2013-11-28 02:55:00,
2013-11-27 22:00:00,23.7,-7.9,29.15,WNW,300,5.0,6.0,24,0.00,CLR,,0.00,WeatherDisplay:10.37,2013-11-28 03:00:00,
2013-11-27 22:10:00,23.4,-8.2,29.15,WNW,285,3.0,6.0,24,0.00,CLR,,0.00,WeatherDisplay:10.37,2013-11-28 03:10:00,
2013-11-27 22:15:00,23.0,-7.7,29.18,WNW,289,3.0,7.0,25,0.00,CLR,,0.00,WeatherDisplay:10.37,2013-11-28 03:15:00,
2013-11-27 22:20:00,22.7,-7.9,29.18,WNW,288,3.0,6.0,25,0.00,CLR,,0.00,WeatherDisplay:10.37,2013-11-28 03:20:00,
2013-11-27 22:30:00,22.1,-8.4,29.18,WNW,285,5.0,8.0,25,0.00,CLR,,0.00,WeatherDisplay:10.37,2013-11-28 03:30:00,
2013-11-27 22:40:00,21.7,-8.8,29.18,WNW,288,3.0,6.0,25,0.00,CLR,,0.00,WeatherDisplay:10.37,2013-11-28 03:40:00,
2013-11-27 22:50:00,21.4,-9.1,29.18,West,277,2.0,6.0,25,0.00,CLR,,0.00,WeatherDisplay:10.37,2013-11-28 03:50:00,
2013-11-27 22:55:00,21.4,-9.1,29.18,WNW,285,3.0,8.0,25,0.00,CLR,,0.00,WeatherDisplay:10.37,2013-11-28 03:55:00,
2013-11-27 23:00:00,21.2,-9.2,29.18,WNW,283,5.0,6.0,25,0.00,CLR,,0.00,WeatherDisplay:10.37,2013-11-28 04:00:00,
2013-11-27 23:05:00,21.2,-9.2,29.18,WNW,287,5.0,7.0,25,0.00,CLR,,0.00,WeatherDisplay:10.37,2013-11-28 04:05:00,
2013-11-27 23:10:00,21.0,-9.4,29.18,WNW,291,2.0,6.0,25,0.00,CLR,,0.00,WeatherDisplay:10.37,2013-11-28 04:10:00,
2013-11-27 23:20:00,20.8,-9.5,29.18,WNW,286,3.0,5.0,25,0.00,CLR,,0.00,WeatherDisplay:10.37,2013-11-28 04:20:00,
2013-11-27 23:30:00,20.7,-9.7,29.20,WNW,282,2.0,4.0,25,0.00,CLR,,0.00,WeatherDisplay:10.37,2013-11-28 04:30:00,
2013-11-27 23:35:00,20.7,-9.7,29.20,WNW,290,3.0,6.0,25,0.00,CLR,,0.00,WeatherDisplay:10.37,2013-11-28 04:35:00,
2013-11-27 23:45:00,20.7,-9.7,29.20,WNW,288,2.0,6.0,25,0.00,CLR,,0.00,WeatherDisplay:10.37,2013-11-28 04:45:00,
2013-11-27 23:50:00,20.8,-9.5,29.20,WNW,284,3.0,6.0,25,0.00,CLR,,0.00,WeatherDisplay:10.37,2013-11-28 04:50:00,
2013-11-27 23:55:00,21.0,-9.4,29.20,WNW,285,3.0,6.0,25,0.00,CLR,,0.00,WeatherDisplay:10.37,2013-11-28 04:55:00,